Flight Track Log - Related Links

Times and Time Zones

All times are in EDT time to prevent confusion due to time zone crossing. See the N960DL flight status page for this flight to view local times or setup timezone preferences in your user account.

Time Position Orientation Groundspeed Altitude Reporting Facility
EDT Latitude Longitude Course Direction KTS MPH feet Rate Location/Type
Fri 04:40:56 PM 33.6331 -84.3756 53° Northeast 442 509 2,400  Level Atlanta Center
Fri 04:41:56 PM 33.6333 -84.2858 90° East 361 415 4,500 2,650 Climbing Atlanta Center
Fri 04:42:56 PM 33.6333 -84.1986 90° East 296 341 7,700 2,900 Climbing Atlanta Center
Fri 04:43:00 PM 33.8037 -83.8884 54° Northeast  Level FlightAware Approximate
Fri 04:43:56 PM 33.6356 -84.1061 88° East 307 353 10,300  Level Atlanta Center
Fri 04:44:00 PM 33.8747 -83.7726 48° Northeast  Level FlightAware Approximate
Fri 04:44:56 PM 33.6878 -84.0264 52° Northeast 287 330 11,800  Level Atlanta Center
Fri 04:45:00 PM 33.9510 -83.6617 53° Northeast  Level FlightAware Approximate
Fri 04:45:56 PM 33.7567 -83.9339 48° Northeast 336 387 13,300  Level Atlanta Center
Fri 04:46:00 PM 34.0228 -83.5464 53° Northeast  Level FlightAware Approximate
Fri 04:46:56 PM 33.8317 -83.8386 47° Northeast 371 427 14,200  Level Atlanta Center
Fri 04:47:56 PM 33.9086 -83.7358 48° Northeast 397 457 16,700 2,250 Climbing Atlanta Center
Fri 04:48:56 PM 33.9814 -83.6281 51° Northeast 409 471 18,700 1,650 Climbing Atlanta Center
Fri 04:49:56 PM 34.0458 -83.5247 53° Northeast 416 479 20,000 1,700 Climbing Atlanta Center
Fri 04:50:56 PM 34.1264 -83.3914 54° Northeast 437 503 22,100 1,800 Climbing Atlanta Center
Fri 04:51:56 PM 34.2072 -83.2678 52° Northeast 461 531 23,600 1,400 Climbing Atlanta Center
Fri 04:52:56 PM 34.2753 -83.1564 54° Northeast 461 531 24,900 1,600 Climbing Atlanta Center
Fri 04:53:56 PM 34.3558 -83.0297 52° Northeast 473 544 26,800 1,600 Climbing Atlanta Center
Fri 04:54:56 PM 34.4361 -82.9028 52° Northeast 466 536 28,100 1,400 Climbing Atlanta Center
Fri 04:55:56 PM 34.5119 -82.7758 55° Northeast 466 536 29,600 1,400 Climbing Atlanta Center
Fri 04:56:00 PM 34.5090 -82.7758 55° Northeast  Level FlightAware Approximate
Fri 04:56:56 PM 34.5897 -82.6458 54° Northeast 466 536 30,900  Level Atlanta Center
Fri 04:57:56 PM 34.6700 -82.5283 50° Northeast 461 531 31,600 900 Climbing Atlanta Center
Fri 04:58:56 PM 34.7494 -82.3981 53° Northeast 467 537 32,700 950 Climbing Atlanta Center
Fri 04:59:56 PM 34.8189 -82.2753 55° Northeast 477 549 33,500 850 Climbing Atlanta Center
Fri 05:00:56 PM 34.8983 -82.1494 52° Northeast 477 549 34,400 500 Climbing Atlanta Center
Fri 05:02:00 PM 34.9643 -82.0165 50° Northeast  Level FlightAware Approximate
Fri 05:02:56 PM 35.0567 -81.8844 50° Northeast 467 537 35,000  Level Atlanta Center
Fri 05:03:56 PM 35.1275 -81.7533 57° Northeast 461 531 35,000  Level Atlanta Center
Fri 05:04:56 PM 35.2000 -81.6192 56° Northeast 471 542 35,000  Level Atlanta Center
Fri 05:05:56 PM 35.2703 -81.4847 57° Northeast 471 542 35,000  Level Atlanta Center
Fri 05:06:56 PM 35.3425 -81.3500 57° Northeast 471 542 35,000  Level Atlanta Center
Fri 05:07:56 PM 35.4103 -81.2128 59° Northeast 466 536 35,000  Level Atlanta Center
Fri 05:08:56 PM 35.4781 -81.0753 59° Northeast 466 536 35,000  Level Atlanta Center
Fri 05:09:56 PM 35.5519 -80.9400 56° Northeast 466 536 35,000  Level Atlanta Center
Fri 05:10:56 PM 35.6214 -80.8069 57° Northeast 466 536 35,000  Level Atlanta Center
Fri 05:11:56 PM 35.6908 -80.6739 57° Northeast 466 536 35,000  Level Atlanta Center
Fri 05:12:56 PM 35.7603 -80.5456 56° Northeast 460 529 35,000  Level Atlanta Center
Fri 05:15:17 PM 35.9250 -80.2142 58° Northeast 466 536 35,000  Level Washington Center
Fri 05:16:17 PM 35.9769 -80.1069 59° Northeast 461 531 35,000  Level Washington Center
Fri 05:17:17 PM 36.0553 -79.9650 56° Northeast 456 525 35,000  Level Washington Center
Fri 05:18:16 PM 36.1289 -79.8353 55° Northeast 451 519 35,000  Level Washington Center
Fri 05:19:17 PM 36.2092 -79.6878 56° Northeast 461 531 35,000  Level Washington Center
Fri 05:20:18 PM 36.2714 -79.5750 56° Northeast 451 519 35,000  Level Washington Center
Fri 05:21:16 PM 36.3508 -79.4372 54° Northeast 451 519 35,000  Level Washington Center
Fri 05:22:16 PM 36.4133 -79.3139 58° Northeast 447 514 35,000  Level Washington Center
Fri 05:23:17 PM 36.4861 -79.1881 54° Northeast 447 514 35,000  Level Washington Center
Fri 05:24:18 PM 36.5653 -79.0494 55° Northeast 447 514 35,000  Level Washington Center
Fri 05:25:19 PM 36.6356 -78.9258 55° Northeast 447 514 35,000  Level Washington Center
Fri 05:26:16 PM 36.7058 -78.7917 57° Northeast 447 514 35,000  Level Washington Center
Fri 05:27:16 PM 36.7781 -78.6647 55° Northeast 447 514 35,000  Level Washington Center
Fri 05:28:17 PM 36.8414 -78.5481 56° Northeast 452 520 35,000  Level Washington Center
Fri 05:29:18 PM 36.9136 -78.4103 57° Northeast 446 513 35,000  Level Washington Center
Fri 05:30:18 PM 36.9789 -78.2933 55° Northeast 446 513 35,000  Level Washington Center
Fri 05:31:16 PM 37.0733 -78.1717 46° Northeast 446 513 35,000  Level Washington Center
Fri 05:32:18 PM 37.1753 -78.0969 30° Northeast 430 495 35,000  Level Washington Center
Fri 05:33:18 PM 37.2831 -78.0167 31° Northeast 435 501 35,000  Level Washington Center
Fri 05:34:17 PM 37.3869 -77.9339 32° Northeast 435 501 35,000  Level Washington Center
Fri 05:35:17 PM 37.4908 -77.8558 31° Northeast 435 501 35,000 -198 Level Washington Center
Fri 05:36:18 PM 37.5925 -77.7725 33° Northeast 435 501 34,600 -1,261 Descending Washington Center
Fri 05:37:16 PM 37.6878 -77.6833 37° Northeast 429 494 32,500 -1,866 Descending Washington Center
Fri 05:38:17 PM 37.7875 -77.5914 36° Northeast 429 494 30,900 -738 Descending Washington Center
Fri 05:39:18 PM 37.8869 -77.5019 35° Northeast 434 499 31,000 50 Climbing Washington Center
Fri 05:40:18 PM 37.9883 -77.4097 36° Northeast 434 499 31,000 -254 Level Washington Center
Fri 05:41:16 PM 38.0753 -77.3300 36° Northeast 434 499 30,500 -1,361 Descending Washington Center
Fri 05:42:17 PM 38.1767 -77.2372 36° Northeast 434 499 28,300 -1,240 Descending Washington Center
Fri 05:43:17 PM 38.2947 -77.1289 36° Northeast 458 527 28,000 -151 Descending Washington Center
Fri 05:44:16 PM 38.3856 -77.0458 36° Northeast 458 527 28,000  Level Washington Center
Fri 05:45:16 PM 38.4886 -76.9497 36° Northeast 458 527 28,000 -500 Level Washington Center
Fri 05:46:16 PM 38.5919 -76.8561 35° Northeast 458 527 27,000 -1,736 Descending Washington Center
Fri 05:47:17 PM 38.6889 -76.7567 39° Northeast 453 521 24,500 -2,430 Descending Washington Center
Fri 05:48:17 PM 38.7342 -76.5950 70° East 419 482 22,100 -1,736 Descending Washington Center
Fri 05:49:18 PM 38.7622 -76.4703 74° East 424 488 21,000 -1,636 Descending Washington Center
Fri 05:50:18 PM 38.7903 -76.3267 76° East 417 480 18,800 -2,083 Descending Washington Center
Fri 05:51:19 PM 38.8203 -76.1858 75° East 412 474 16,800 -1,966 Descending Washington Center
Fri 05:52:17 PM 38.8542 -76.0342 74° East 412 474 14,900 -915 Descending Washington Center
Fri 05:53:17 PM 38.8817 -75.9064 75° East 390 449 15,000 -744 Climbing Washington Center
Fri 05:54:18 PM 38.9381 -75.7917 58° Northeast 383 441 13,400 -1,339 Descending Washington Center
Fri 05:55:18 PM 39.0217 -75.7144 36° Northeast 357 411 12,300 -921 Descending Washington Center
Fri 05:57:27 PM 39.2333 -75.6500 13° North 351 404 10,500 -730 Descending Philadelphia TRACON
Fri 05:58:27 PM 39.3167 -75.6167 17° North 295 339 10,000 -1,048 Descending Philadelphia TRACON
Fri 05:59:33 PM 39.3833 -75.5667 30° Northeast 291 335 8,300 -1,429 Descending Philadelphia TRACON
Fri 06:00:33 PM 39.4167 -75.4667 67° East 281 323 7,000 -789 Descending Philadelphia TRACON
Fri 06:01:27 PM 39.4333 -75.3833 75° East 229 264 6,800 -400 Descending Philadelphia TRACON
Fri 06:02:33 PM 39.4667 -75.3167 57° Northeast 233 268 6,200 -381 Descending Philadelphia TRACON
Fri 06:03:33 PM 39.5167 -75.2500 46° Northeast 228 262 6,000 -200 Descending Philadelphia TRACON
Fri 06:04:33 PM 39.5667 -75.2000 38° Northeast 230 265 5,800 -400 Descending Philadelphia TRACON
Fri 06:05:33 PM 39.6000 -75.1333 57° Northeast 232 267 5,200 -400 Descending Philadelphia TRACON
Fri 06:06:33 PM 39.6500 -75.0833 38° Northeast 225 259 5,000 -100 Descending Philadelphia TRACON
Fri 06:07:33 PM 39.7000 -75.0333 38° Northeast 220 253 5,000  Level Philadelphia TRACON
Fri 06:08:33 PM 39.7500 -74.9833 38° Northeast 218 251 5,000 -500 Level Philadelphia TRACON
Fri 06:09:33 PM 39.8000 -74.9500 27° Northeast 223 257 4,000 -684 Descending Philadelphia TRACON
Fri 06:10:27 PM 39.8500 -74.9833 333° Northwest 209 241 3,700 -667 Descending Philadelphia TRACON
Fri 06:11:21 PM 39.8833 -75.0333 311° West 201 231 2,800 -800 Descending Philadelphia TRACON
Fri 06:12:27 PM 39.9000 -75.1000 288° West 179 206 2,100 -636 Descending Philadelphia TRACON

Login

Don't have an account? Register now (free) for customized features, flight alerts, and more!